Time;durP1;ratioP1;P1;durP2;ratioP2;P2;SDS_P1;SDS_P2;PMS_P1;PMS_P2;Temp;Humidity;BMP_temperature;BMP_pressure;BME280_temperature;BME280_humidity;BME280_pressure;Samples;Min_cycle;Max_cycle;Signal;HPM_P1;HPM_P2
2022/08/01 00:00:59;;;;;;;5.20;4.97;;;22.10;1.00;;;;;;6269065;28;20722;-54
2022/08/01 00:04:02;;;;;;;5.30;4.90;;;22.10;1.00;;;;;;6284454;28;20315;-53
2022/08/01 00:07:05;;;;;;;5.97;4.77;;;22.10;1.00;;;;;;6290496;28;20238;-56
2022/08/01 00:10:10;;;;;;;5.40;5.10;;;22.10;1.00;;;;;;6257011;28;20241;-58
2022/08/01 00:13:15;;;;;;;5.13;4.80;;;22.00;1.00;;;;;;6280765;28;20512;-55
2022/08/01 00:16:18;;;;;;;5.47;5.20;;;22.00;1.00;;;;;;6286055;28;20312;-54
2022/08/01 00:19:21;;;;;;;5.33;5.10;;;21.90;1.00;;;;;;6270300;28;20462;-56
2022/08/01 00:22:24;;;;;;;5.50;5.20;;;21.90;1.00;;;;;;6263432;28;20731;-54
2022/08/01 00:25:27;;;;;;;5.97;5.43;;;21.80;1.00;;;;;;6285182;28;20248;-55
2022/08/01 00:28:37;;;;;;;5.20;5.00;;;21.70;1.00;;;;;;6261546;28;20245;-55
2022/08/01 00:31:40;;;;;;;5.80;5.40;;;21.90;1.00;;;;;;6261418;28;20648;-55
2022/08/01 00:34:43;;;;;;;5.53;5.00;;;21.70;1.00;;;;;;6288838;28;20282;-54
2022/08/01 00:37:46;;;;;;;5.47;5.03;;;21.70;1.00;;;;;;6311238;28;20251;-55
2022/08/01 00:40:49;;;;;;;5.47;5.17;;;21.70;1.00;;;;;;6310540;28;20323;-54
2022/08/01 00:43:54;;;;;;;5.23;4.93;;;21.70;1.00;;;;;;6297401;28;20241;-55
2022/08/01 00:46:57;;;;;;;5.87;5.37;;;21.70;1.00;;;;;;6280611;28;20261;-55
2022/08/01 00:50:00;;;;;;;5.70;5.47;;;21.70;1.00;;;;;;6285558;28;20229;-55
2022/08/01 00:53:03;;;;;;;5.50;5.20;;;21.60;1.00;;;;;;6277633;28;20253;-54
2022/08/01 00:56:07;;;;;;;5.33;5.13;;;21.60;1.00;;;;;;6284990;28;20608;-55
2022/08/01 00:59:13;;;;;;;5.50;5.20;;;21.60;1.00;;;;;;6282561;28;20237;-54
2022/08/01 01:02:17;;;;;;;5.70;5.30;;;21.50;1.00;;;;;;6275867;28;20244;-55
2022/08/01 01:05:20;;;;;;;5.47;5.23;;;21.40;1.00;;;;;;6287192;28;20233;-54
2022/08/01 01:08:32;;;;;;;6.10;5.80;;;21.40;1.00;;;;;;6273383;28;20329;-55
2022/08/01 01:11:44;;;;;;;5.90;5.50;;;21.40;1.00;;;;;;6260519;28;20558;-55
2022/08/01 01:15:00;;;;;;;5.37;4.97;;;21.40;1.00;;;;;;6260925;28;20731;-55
2022/08/01 01:18:07;;;;;;;5.90;5.70;;;21.30;1.00;;;;;;6260534;28;20230;-55
2022/08/01 01:21:35;;;;;;;5.47;5.27;;;21.30;1.00;;;;;;6275007;28;20709;-54
2022/08/01 01:24:45;;;;;;;5.13;4.90;;;21.20;1.00;;;;;;6291111;28;20525;-55
2022/08/01 01:27:59;;;;;;;6.37;5.97;;;21.20;1.00;;;;;;6279834;28;20304;-55
2022/08/01 01:31:07;;;;;;;6.60;5.90;;;21.10;1.00;;;;;;6259650;28;20333;-56
2022/08/01 01:34:15;;;;;;;5.83;5.40;;;21.10;1.00;;;;;;6276698;28;20236;-55
2022/08/01 01:37:21;;;;;;;5.87;5.37;;;21.10;1.00;;;;;;6263953;28;20315;-55
2022/08/01 01:40:25;;;;;;;5.50;5.20;;;21.00;1.00;;;;;;6259393;28;20332;-55
2022/08/01 01:43:30;;;;;;;5.60;5.30;;;21.00;1.00;;;;;;6260189;28;20266;-54
2022/08/01 01:46:37;;;;;;;5.43;5.13;;;21.00;1.00;;;;;;6259302;28;20638;-55
2022/08/01 01:49:42;;;;;;;5.60;5.30;;;21.00;1.00;;;;;;6259198;28;20246;-55
2022/08/01 01:52:47;;;;;;;5.60;5.23;;;21.00;1.00;;;;;;6264583;28;20287;-56
2022/08/01 01:55:54;;;;;;;6.03;5.73;;;21.00;1.00;;;;;;6272131;28;20268;-56
2022/08/01 01:59:01;;;;;;;5.13;4.87;;;21.00;1.00;;;;;;6281433;28;20371;-53
2022/08/01 02:02:08;;;;;;;5.00;4.70;;;20.90;1.00;;;;;;6254498;28;20750;-54
2022/08/01 02:05:13;;;;;;;5.77;5.30;;;20.90;1.00;;;;;;6305185;28;20324;-55
2022/08/01 02:08:18;;;;;;;5.73;5.43;;;20.90;1.00;;;;;;6271224;28;20715;-56
2022/08/01 02:11:22;;;;;;;5.27;4.93;;;20.80;1.00;;;;;;6258873;28;20234;-55
2022/08/01 02:14:26;;;;;;;5.80;5.50;;;20.80;1.00;;;;;;6258853;28;20669;-55
2022/08/01 02:17:32;;;;;;;5.40;5.07;;;20.70;1.00;;;;;;6258661;28;20677;-53
2022/08/01 02:20:37;;;;;;;5.70;5.40;;;20.70;1.00;;;;;;6259351;28;20801;-56
2022/08/01 02:23:42;;;;;;;6.20;5.63;;;20.60;1.00;;;;;;6262132;28;20235;-54
2022/08/01 02:26:51;;;;;;;6.00;5.67;;;20.60;1.00;;;;;;6280336;28;20748;-54
2022/08/01 02:29:59;;;;;;;6.40;6.10;;;20.50;1.00;;;;;;6283170;28;20248;-56
2022/08/01 02:33:06;;;;;;;6.37;5.93;;;20.40;1.00;;;;;;6275996;28;20346;-55
2022/08/01 02:36:21;;;;;;;6.30;5.93;;;20.30;1.00;;;;;;6308241;28;20251;-54
2022/08/01 02:39:37;;;;;;;5.87;5.67;;;20.30;1.00;;;;;;6290124;28;20691;-55
2022/08/01 02:42:44;;;;;;;6.43;6.13;;;20.20;1.00;;;;;;6274709;28;20275;-54
2022/08/01 02:45:56;;;;;;;5.93;5.73;;;20.20;1.00;;;;;;6271538;28;20242;-54
2022/08/01 02:49:03;;;;;;;6.63;6.30;;;20.20;1.00;;;;;;6257731;28;20520;-55
2022/08/01 02:52:11;;;;;;;6.03;5.60;;;20.20;1.00;;;;;;6258610;28;20332;-53
2022/08/01 02:55:15;;;;;;;6.70;6.20;;;20.20;1.00;;;;;;6274919;28;20233;-56
2022/08/01 02:58:23;;;;;;;6.30;5.80;;;20.20;1.00;;;;;;6282677;28;20282;-55
2022/08/01 03:01:33;;;;;;;6.57;5.77;;;20.20;1.00;;;;;;6282428;28;20234;-55
2022/08/01 03:04:41;;;;;;;6.70;6.30;;;20.10;1.00;;;;;;6299471;28;21201;-55
2022/08/01 03:07:44;;;;;;;6.67;6.37;;;20.10;1.00;;;;;;6261202;28;20754;-55
2022/08/01 03:10:54;;;;;;;6.57;6.27;;;20.10;1.00;;;;;;6259016;28;20252;-55
2022/08/01 03:13:59;;;;;;;6.73;6.43;;;20.10;1.00;;;;;;6278366;28;20229;-55
2022/08/01 03:17:04;;;;;;;6.37;6.07;;;20.10;1.00;;;;;;6265084;28;20261;-54
2022/08/01 03:20:12;;;;;;;7.10;6.50;;;20.10;1.00;;;;;;6258046;28;20321;-55
2022/08/01 03:23:17;;;;;;;6.27;5.97;;;20.10;1.00;;;;;;6266499;28;20375;-55
2022/08/01 03:26:21;;;;;;;6.37;6.10;;;20.10;1.00;;;;;;6282498;28;20265;-55
2022/08/01 03:29:26;;;;;;;6.03;5.73;;;20.00;1.00;;;;;;6282709;28;20328;-54
2022/08/01 03:32:31;;;;;;;6.27;5.77;;;20.00;1.00;;;;;;6269598;28;20332;-54
2022/08/01 03:35:40;;;;;;;6.27;5.97;;;20.00;1.00;;;;;;6289711;28;20698;-54
2022/08/01 03:38:46;;;;;;;6.27;5.77;;;20.10;1.00;;;;;;6284421;28;20338;-54
2022/08/01 03:42:01;;;;;;;6.27;5.97;;;20.10;1.00;;;;;;6280257;28;20431;-55
2022/08/01 03:45:09;;;;;;;6.67;6.27;;;20.10;1.00;;;;;;6280461;28;21012;-55
2022/08/01 03:48:17;;;;;;;7.00;5.67;;;20.10;1.00;;;;;;6281483;28;20320;-55
2022/08/01 03:51:23;;;;;;;6.30;6.07;;;20.10;1.00;;;;;;6281798;28;20330;-54
2022/08/01 03:54:32;;;;;;;6.10;5.73;;;20.10;1.00;;;;;;6282526;28;20237;-55
2022/08/01 03:57:36;;;;;;;7.23;6.73;;;20.10;1.00;;;;;;6282654;28;20311;-54
2022/08/01 04:00:40;;;;;;;6.23;5.93;;;20.10;1.00;;;;;;6286228;28;20240;-54
2022/08/01 04:03:43;;;;;;;6.20;5.80;;;20.10;1.00;;;;;;6294915;28;20367;-55
2022/08/01 04:06:50;;;;;;;6.70;6.00;;;20.10;1.00;;;;;;6279085;28;20323;-55
2022/08/01 04:09:54;;;;;;;6.73;6.33;;;20.20;1.00;;;;;;6289911;28;20289;-53
2022/08/01 04:12:56;;;;;;;7.47;6.77;;;20.20;1.00;;;;;;6286831;28;20279;-54
2022/08/01 04:16:00;;;;;;;7.27;6.87;;;20.20;1.00;;;;;;6287967;28;20241;-56
2022/08/01 04:19:07;;;;;;;8.40;7.67;;;20.20;1.00;;;;;;6278863;28;20237;-56
2022/08/01 04:22:14;;;;;;;7.57;7.17;;;20.20;1.00;;;;;;6285551;28;20237;-54
2022/08/01 04:25:22;;;;;;;9.30;8.33;;;20.20;1.00;;;;;;6278572;28;20312;-55
2022/08/01 04:28:26;;;;;;;8.80;8.10;;;20.30;1.00;;;;;;6290534;28;20296;-54
2022/08/01 04:31:31;;;;;;;10.40;9.57;;;20.30;1.00;;;;;;6285892;28;20244;-54
2022/08/01 04:34:35;;;;;;;11.93;10.67;;;20.30;1.00;;;;;;6289604;28;20241;-54
2022/08/01 04:37:41;;;;;;;10.87;9.87;;;20.30;1.00;;;;;;6290037;28;20328;-54
2022/08/01 04:40:46;;;;;;;11.07;10.13;;;20.30;1.00;;;;;;6279929;28;20942;-54
2022/08/01 04:43:50;;;;;;;10.90;10.00;;;20.30;1.00;;;;;;6291251;28;20241;-55
2022/08/01 04:46:56;;;;;;;9.77;8.97;;;20.30;1.00;;;;;;6284323;28;20714;-53
2022/08/01 04:49:59;;;;;;;9.40;8.70;;;20.40;1.00;;;;;;6290211;28;20525;-54
2022/08/01 04:53:04;;;;;;;9.77;9.00;;;20.40;1.00;;;;;;6282853;28;20310;-56
2022/08/01 04:56:08;;;;;;;10.77;9.80;;;20.40;1.00;;;;;;6292613;28;20608;-53
2022/08/01 05:02:31;;;;;;;10.63;9.80;;;20.50;1.00;;;;;;6282719;28;20237;-53
2022/08/01 05:05:34;;;;;;;12.60;11.37;;;20.50;1.00;;;;;;6290062;28;20645;-55
2022/08/01 05:08:39;;;;;;;11.63;10.73;;;20.40;1.00;;;;;;6280879;28;20391;-56
2022/08/01 05:11:42;;;;;;;13.27;11.97;;;20.30;1.00;;;;;;6292157;28;20702;-55
2022/08/01 05:14:45;;;;;;;12.70;11.63;;;20.30;1.00;;;;;;6289300;28;20232;-54
2022/08/01 05:17:48;;;;;;;13.53;12.53;;;20.30;1.00;;;;;;6284410;28;20236;-56
2022/08/01 05:20:51;;;;;;;12.80;11.80;;;20.30;1.00;;;;;;6286696;28;20239;-55
2022/08/01 05:23:55;;;;;;;12.77;11.93;;;20.20;1.00;;;;;;6287458;28;20320;-54
2022/08/01 05:26:59;;;;;;;13.40;12.27;;;20.20;1.00;;;;;;6281447;28;20279;-53
2022/08/01 05:30:06;;;;;;;11.67;10.77;;;20.20;1.00;;;;;;6292620;28;20384;-54
2022/08/01 05:33:09;;;;;;;13.70;12.67;;;20.30;1.00;;;;;;6284507;28;20225;-55
2022/08/01 05:36:12;;;;;;;13.43;12.40;;;20.30;1.00;;;;;;6284511;28;20787;-55
2022/08/01 05:39:16;;;;;;;12.90;11.83;;;20.30;1.00;;;;;;6275658;28;20684;-56
2022/08/01 05:42:19;;;;;;;11.20;10.50;;;20.30;1.00;;;;;;6288211;28;20300;-55
2022/08/01 05:45:22;;;;;;;10.70;9.80;;;20.30;1.00;;;;;;6285451;28;20361;-54
2022/08/01 05:48:25;;;;;;;10.60;9.70;;;20.40;1.00;;;;;;6275457;28;20650;-54
2022/08/01 05:51:29;;;;;;;10.87;9.87;;;20.50;1.00;;;;;;6290279;28;20273;-54
2022/08/01 05:54:33;;;;;;;9.97;9.30;;;20.50;1.00;;;;;;6283890;28;20585;-54
2022/08/01 05:57:36;;;;;;;10.17;9.50;;;20.50;1.00;;;;;;6289725;28;20290;-54
2022/08/01 06:00:42;;;;;;;9.37;8.63;;;20.60;1.00;;;;;;6280550;28;20245;-55
2022/08/01 06:03:45;;;;;;;9.63;8.73;;;20.70;1.00;;;;;;6285342;28;20724;-54
2022/08/01 06:06:48;;;;;;;8.50;7.90;;;20.80;1.00;;;;;;6287613;28;20733;-55
2022/08/01 06:09:53;;;;;;;7.40;7.03;;;20.90;1.00;;;;;;6280706;28;20256;-54
2022/08/01 06:12:56;;;;;;;7.70;7.23;;;21.10;1.00;;;;;;6275433;28;20237;-55
2022/08/01 06:15:59;;;;;;;7.57;7.03;;;21.10;1.00;;;;;;6281956;28;20308;-55
2022/08/01 06:19:02;;;;;;;7.57;7.00;;;21.20;1.00;;;;;;6277012;28;20236;-55
2022/08/01 06:22:04;;;;;;;7.17;6.77;;;21.20;1.00;;;;;;6284053;28;20307;-56
2022/08/01 06:25:10;;;;;;;8.13;7.63;;;21.20;1.00;;;;;;6280159;28;20233;-54
2022/08/01 06:28:13;;;;;;;6.87;6.37;;;21.10;1.00;;;;;;6285949;28;20330;-54
2022/08/01 06:31:16;;;;;;;6.97;6.67;;;21.20;1.00;;;;;;6285798;28;20250;-54
2022/08/01 06:34:19;;;;;;;6.90;6.50;;;21.30;1.00;;;;;;6285097;28;20291;-55
2022/08/01 06:37:22;;;;;;;6.50;6.07;;;21.10;1.00;;;;;;6280456;28;20283;-55
2022/08/01 06:40:26;;;;;;;6.43;5.90;;;21.20;1.00;;;;;;6281303;28;20237;-54
2022/08/01 06:43:29;;;;;;;5.90;5.50;;;21.20;1.00;;;;;;6287031;28;20375;-54
2022/08/01 06:46:32;;;;;;;5.10;4.90;;;21.20;1.00;;;;;;6282870;28;20332;-55
2022/08/01 06:49:36;;;;;;;4.90;4.60;;;21.30;1.00;;;;;;6282147;28;20507;-56
2022/08/01 06:52:39;;;;;;;5.37;4.87;;;21.50;1.00;;;;;;6279690;28;20225;-54
2022/08/01 06:55:44;;;;;;;5.00;4.57;;;21.60;1.00;;;;;;6276085;28;20798;-54
2022/08/01 06:58:47;;;;;;;4.40;4.20;;;21.70;1.00;;;;;;6281791;28;20325;-53
2022/08/01 07:01:50;;;;;;;4.07;3.87;;;21.80;1.00;;;;;;6268671;28;20237;-54
2022/08/01 07:04:53;;;;;;;4.17;3.87;;;21.90;1.00;;;;;;6281654;28;20362;-55
2022/08/01 07:07:56;;;;;;;4.20;4.00;;;22.00;1.00;;;;;;6277525;28;20387;-55
2022/08/01 07:11:00;;;;;;;4.20;4.00;;;22.00;1.00;;;;;;6285352;28;20275;-54
2022/08/01 07:14:03;;;;;;;4.07;3.87;;;22.10;1.00;;;;;;6278691;28;20243;-55
2022/08/01 07:17:06;;;;;;;3.67;3.67;;;21.90;1.00;;;;;;6281064;28;20447;-56
2022/08/01 07:20:11;;;;;;;3.47;3.37;;;21.90;1.00;;;;;;6284024;28;20237;-55
2022/08/01 07:23:18;;;;;;;4.60;4.13;;;22.00;1.00;;;;;;6285314;28;20527;-55
2022/08/01 07:26:26;;;;;;;4.23;4.13;;;22.00;1.00;;;;;;6287603;28;20248;-55
2022/08/01 07:29:29;;;;;;;3.80;3.70;;;22.20;1.00;;;;;;6283610;28;20680;-55
2022/08/01 07:32:33;;;;;;;4.20;4.10;;;22.30;1.00;;;;;;6284606;28;20225;-55
2022/08/01 07:35:37;;;;;;;4.17;3.97;;;22.30;1.00;;;;;;6287283;28;20233;-55
2022/08/01 07:38:40;;;;;;;3.57;3.53;;;22.20;1.00;;;;;;6286296;28;20497;-55
2022/08/01 07:41:45;;;;;;;4.17;4.07;;;22.10;1.00;;;;;;6282480;28;20263;-54
2022/08/01 07:45:09;;;;;;;4.53;4.40;;;22.10;1.00;;;;;;6288117;28;20246;-54
2022/08/01 07:48:12;;;;;;;3.83;3.73;;;22.00;1.00;;;;;;6287243;28;20234;-54
2022/08/01 07:51:15;;;;;;;4.00;3.90;;;21.90;1.00;;;;;;6261924;28;20355;-55
2022/08/01 07:54:17;;;;;;;4.80;4.50;;;21.90;1.00;;;;;;6293425;28;20233;-61
2022/08/01 07:57:22;;;;;;;3.90;3.60;;;22.00;1.00;;;;;;6285640;28;20262;-54
2022/08/01 08:00:25;;;;;;;4.27;4.07;;;22.10;1.00;;;;;;6282222;28;20328;-54
2022/08/01 08:03:28;;;;;;;4.30;4.10;;;22.20;1.00;;;;;;6285395;28;20328;-55
2022/08/01 08:06:31;;;;;;;4.37;4.20;;;22.20;1.00;;;;;;6285009;28;20244;-55
2022/08/01 08:09:34;;;;;;;4.43;4.33;;;22.10;1.00;;;;;;6289474;28;20240;-54
2022/08/01 08:12:41;;;;;;;5.60;5.27;;;22.00;1.00;;;;;;6285129;28;20243;-54
2022/08/01 08:15:44;;;;;;;5.40;5.20;;;21.90;1.00;;;;;;6285042;28;20324;-55
2022/08/01 08:18:50;;;;;;;5.53;5.33;;;21.80;1.00;;;;;;6288458;28;20722;-55
2022/08/01 08:21:53;;;;;;;5.90;5.60;;;21.60;1.00;;;;;;6285149;28;20361;-56
2022/08/01 08:24:56;;;;;;;6.20;5.90;;;21.50;1.00;;;;;;6292821;28;20378;-55
2022/08/01 08:28:04;;;;;;;6.03;5.63;;;21.40;1.00;;;;;;6290092;28;20623;-55
2022/08/01 08:31:07;;;;;;;4.97;4.60;;;21.50;1.00;;;;;;6289817;28;20320;-56
2022/08/01 08:34:30;;;;;;;4.37;4.27;;;21.60;1.00;;;;;;6281983;28;20397;-54
2022/08/01 08:37:33;;;;;;;5.23;4.93;;;21.80;1.00;;;;;;6283872;28;20378;-54
2022/08/01 08:40:45;;;;;;;4.40;4.20;;;21.90;1.00;;;;;;6282034;28;20237;-56
2022/08/01 08:43:50;;;;;;;4.23;3.97;;;22.00;1.00;;;;;;6276452;28;20226;-53
2022/08/01 08:46:54;;;;;;;4.40;4.30;;;21.90;1.00;;;;;;6289863;28;20790;-55
2022/08/01 08:49:58;;;;;;;5.17;4.87;;;22.00;1.00;;;;;;6291597;28;20375;-54
2022/08/01 08:53:02;;;;;;;5.00;4.80;;;22.00;1.00;;;;;;6288888;28;20302;-55
2022/08/01 08:56:09;;;;;;;4.30;4.03;;;22.10;1.00;;;;;;6289506;28;20236;-55
2022/08/01 08:59:14;;;;;;;3.90;3.80;;;22.20;1.00;;;;;;6284035;28;20309;-55
2022/08/01 09:02:17;;;;;;;3.60;3.40;;;22.20;1.00;;;;;;6284784;28;20585;-55
2022/08/01 09:05:25;;;;;;;3.00;3.00;;;22.10;1.00;;;;;;6287636;28;20681;-55
2022/08/01 09:08:41;;;;;;;3.03;2.90;;;22.10;1.00;;;;;;6247994;28;20740;-55
2022/08/01 09:11:44;;;;;;;2.50;2.40;;;22.30;1.00;;;;;;6284233;28;20367;-53
2022/08/01 09:15:00;;;;;;;2.77;2.77;;;22.50;1.00;;;;;;6278763;28;20446;-54
2022/08/01 09:18:03;;;;;;;2.73;2.63;;;22.80;1.00;;;;;;6287273;28;20321;-55
2022/08/01 09:21:12;;;;;;;3.03;2.83;;;22.90;1.00;;;;;;6283074;28;20337;-55
2022/08/01 09:24:16;;;;;;;2.20;2.20;;;22.80;1.00;;;;;;6289948;28;20229;-54
2022/08/01 09:27:32;;;;;;;2.73;2.67;;;22.70;1.00;;;;;;6278488;28;20237;-55
2022/08/01 09:30:39;;;;;;;3.77;2.60;;;22.60;1.00;;;;;;6286961;28;20333;-54
2022/08/01 09:33:52;;;;;;;2.27;2.27;;;22.50;1.00;;;;;;6286600;28;20311;-55
2022/08/01 09:36:56;;;;;;;2.30;2.20;;;22.50;1.00;;;;;;6280484;28;20399;-55
2022/08/01 09:39:59;;;;;;;2.50;2.50;;;22.60;1.00;;;;;;6284551;28;20320;-54
2022/08/01 09:43:11;;;;;;;2.73;2.53;;;22.70;1.00;;;;;;6283334;28;20483;-54
2022/08/01 09:46:18;;;;;;;2.50;2.30;;;22.80;1.00;;;;;;6280070;28;20252;-56
2022/08/01 09:49:30;;;;;;;2.50;2.40;;;22.80;1.00;;;;;;6285018;28;20247;-54
2022/08/01 09:52:55;;;;;;;4.20;3.20;;;22.80;1.00;;;;;;6299279;28;20228;-55
2022/08/01 09:56:10;;;;;;;2.73;2.63;;;22.70;1.00;;;;;;6282498;28;20236;-55
2022/08/01 09:59:14;;;;;;;3.00;2.80;;;22.60;1.00;;;;;;6283105;28;20635;-56
2022/08/01 10:02:31;;;;;;;3.30;3.00;;;22.60;1.00;;;;;;6289656;28;20229;-54
2022/08/01 10:05:35;;;;;;;3.40;3.10;;;22.50;1.00;;;;;;6284989;28;20593;-56
2022/08/01 10:08:47;;;;;;;3.13;3.03;;;22.50;1.00;;;;;;6287325;28;20236;-58
2022/08/01 10:11:51;;;;;;;2.60;2.60;;;22.60;1.00;;;;;;6269623;28;20240;-54
2022/08/01 10:14:55;;;;;;;3.50;3.30;;;22.70;1.00;;;;;;6283393;28;20612;-55
2022/08/01 10:18:02;;;;;;;3.63;3.20;;;22.80;1.00;;;;;;6281912;28;20316;-54
2022/08/01 10:21:06;;;;;;;2.90;2.70;;;22.80;1.00;;;;;;6275501;28;20240;-55
2022/08/01 10:24:13;;;;;;;3.40;2.53;;;22.90;1.00;;;;;;6281932;28;20244;-55
2022/08/01 10:27:20;;;;;;;3.10;2.90;;;22.90;1.00;;;;;;6272904;28;20249;-56
2022/08/01 10:30:43;;;;;;;2.93;2.83;;;23.00;1.00;;;;;;6247445;28;20358;-54
2022/08/01 10:33:50;;;;;;;2.70;2.50;;;23.00;1.00;;;;;;6285121;28;20240;-56
2022/08/01 10:36:55;;;;;;;2.73;2.63;;;23.00;1.00;;;;;;6282970;28;20229;-54
2022/08/01 10:39:58;;;;;;;3.00;3.00;;;23.10;1.00;;;;;;6292200;28;20262;-56
2022/08/01 10:43:21;;;;;;;2.30;2.30;;;23.10;1.00;;;;;;6285516;28;20226;-56
2022/08/01 10:46:25;;;;;;;2.27;2.10;;;23.10;1.00;;;;;;6283597;28;20240;-55
2022/08/01 10:49:35;;;;;;;2.97;2.60;;;23.10;1.00;;;;;;6285436;28;20299;-55
2022/08/01 10:52:38;;;;;;;2.73;2.53;;;23.00;1.00;;;;;;6286955;28;20237;-55
2022/08/01 10:55:52;;;;;;;2.40;2.40;;;22.90;1.00;;;;;;6290154;28;20605;-55
2022/08/01 10:59:03;;;;;;;2.30;2.30;;;22.90;1.00;;;;;;6268252;28;20245;-55
2022/08/01 11:02:26;;;;;;;2.40;2.30;;;23.00;1.00;;;;;;6283535;28;20252;-54
2022/08/01 11:05:36;;;;;;;2.20;2.20;;;22.90;1.00;;;;;;6274393;28;20303;-56
2022/08/01 11:08:40;;;;;;;2.37;2.20;;;22.90;1.00;;;;;;6284195;28;20643;-55
2022/08/01 11:12:04;;;;;;;1.90;1.90;;;23.00;1.00;;;;;;6286705;28;20244;-55
2022/08/01 11:15:30;;;;;;;2.10;2.00;;;23.10;1.00;;;;;;6276265;28;20229;-55
2022/08/01 11:18:34;;;;;;;2.20;2.10;;;23.40;1.00;;;;;;6281423;28;20230;-56
2022/08/01 11:22:03;;;;;;;3.13;2.07;;;23.70;1.00;;;;;;6293096;28;20240;-54
2022/08/01 11:25:07;;;;;;;2.53;2.30;;;23.70;1.00;;;;;;6281316;28;20674;-55
2022/08/01 11:28:19;;;;;;;1.97;1.97;;;23.60;1.00;;;;;;6283614;28;20236;-54
2022/08/01 11:31:35;;;;;;;2.20;2.20;;;23.40;1.00;;;;;;6279907;28;20314;-55
2022/08/01 11:34:53;;;;;;;2.17;2.17;;;23.30;1.00;;;;;;6287311;28;20237;-54
2022/08/01 11:38:17;;;;;;;2.53;2.43;;;22.90;1.00;;;;;;6275572;28;20233;-55
2022/08/01 11:41:24;;;;;;;6.37;2.70;;;22.60;1.00;;;;;;6274871;28;20301;-54
2022/08/01 11:44:49;;;;;;;2.97;2.57;;;22.40;1.00;;;;;;6284371;28;20228;-53
2022/08/01 11:47:52;;;;;;;2.30;2.30;;;22.20;1.00;;;;;;6281406;28;20670;-53
2022/08/01 11:50:58;;;;;;;2.77;2.50;;;22.20;1.00;;;;;;6286195;28;20823;-54
2022/08/01 11:54:05;;;;;;;3.53;3.23;;;22.10;1.00;;;;;;6281053;28;20724;-55
2022/08/01 11:57:10;;;;;;;2.90;2.70;;;22.10;1.00;;;;;;6276181;28;20302;-55
2022/08/01 12:00:16;;;;;;;2.20;2.20;;;22.30;1.00;;;;;;6280022;28;20257;-55
2022/08/01 12:03:25;;;;;;;2.90;2.70;;;22.40;1.00;;;;;;6284503;28;20315;-55
2022/08/01 12:06:35;;;;;;;2.50;2.30;;;22.50;1.00;;;;;;6281935;28;20483;-55
2022/08/01 12:09:40;;;;;;;2.67;2.57;;;22.90;1.00;;;;;;6289354;28;20289;-55
2022/08/01 12:12:45;;;;;;;3.90;2.30;;;23.10;1.00;;;;;;6279986;28;20661;-55
2022/08/01 12:15:49;;;;;;;2.33;2.30;;;23.50;1.00;;;;;;6285764;28;20241;-54
2022/08/01 12:18:58;;;;;;;2.40;2.37;;;23.70;1.00;;;;;;6288320;28;20233;-55
2022/08/01 12:22:12;;;;;;;2.10;2.00;;;24.10;1.00;;;;;;6280751;28;20229;-54
2022/08/01 12:25:18;;;;;;;2.30;2.20;;;24.40;1.00;;;;;;6280981;28;20304;-55
2022/08/01 12:28:22;;;;;;;2.20;2.10;;;24.60;1.00;;;;;;6287941;28;20275;-55
2022/08/01 12:31:32;;;;;;;1.60;1.60;;;24.70;1.00;;;;;;6284658;28;20590;-55
2022/08/01 12:34:35;;;;;;;1.80;1.80;;;24.80;1.00;;;;;;6294061;28;20299;-55
2022/08/01 12:37:39;;;;;;;3.53;2.20;;;24.70;1.00;;;;;;6289397;28;20232;-54
2022/08/01 12:40:47;;;;;;;2.20;2.10;;;24.50;1.00;;;;;;6281426;28;20317;-55
2022/08/01 12:43:56;;;;;;;1.80;1.70;;;24.50;1.00;;;;;;6289663;28;20252;-54
2022/08/01 12:47:01;;;;;;;1.97;1.97;;;24.50;1.00;;;;;;6289517;28;20291;-55
2022/08/01 12:50:06;;;;;;;1.80;1.70;;;24.30;1.00;;;;;;6285120;28;20249;-55
2022/08/01 12:53:10;;;;;;;2.20;2.20;;;24.50;1.00;;;;;;6286993;28;20345;-55
2022/08/01 12:56:32;;;;;;;2.40;2.30;;;24.80;1.00;;;;;;6280774;28;20241;-55
2022/08/01 12:59:35;;;;;;;2.47;2.47;;;24.80;1.00;;;;;;6283007;28;20329;-55
2022/08/01 13:02:39;;;;;;;1.90;1.90;;;24.90;1.00;;;;;;6291569;28;20436;-55
2022/08/01 13:05:47;;;;;;;2.47;2.47;;;25.10;1.00;;;;;;6280040;28;20229;-55
2022/08/01 13:08:50;;;;;;;2.53;2.30;;;25.20;1.00;;;;;;6290781;28;20880;-56
2022/08/01 13:11:55;;;;;;;2.03;2.03;;;25.40;1.00;;;;;;6293844;28;20262;-55
2022/08/01 13:15:30;;;;;;;2.10;2.00;;;25.50;1.00;;;;;;6284264;28;20642;-55
2022/08/01 13:18:35;;;;;;;2.80;2.70;;;25.30;1.00;;;;;;6281892;28;20683;-56
2022/08/01 13:21:38;;;;;;;2.30;2.10;;;25.00;1.00;;;;;;6280766;28;20233;-55
2022/08/01 13:25:10;;;;;;;2.00;2.00;;;24.80;1.00;;;;;;6292702;28;20801;-54
2022/08/01 13:28:19;;;;;;;3.10;2.60;;;24.70;1.00;;;;;;6284875;28;20232;-54
2022/08/01 13:31:33;;;;;;;2.63;2.53;;;24.50;1.00;;;;;;6252684;28;20328;-54
2022/08/01 13:34:37;;;;;;;3.53;2.73;;;24.50;1.00;;;;;;6285160;28;20729;-55
2022/08/01 13:37:41;;;;;;;3.73;2.30;;;24.70;1.00;;;;;;6280997;28;20636;-55
2022/08/01 13:40:44;;;;;;;2.30;2.10;;;24.80;1.00;;;;;;6283149;28;20299;-55
2022/08/01 13:43:49;;;;;;;2.30;2.20;;;24.80;1.00;;;;;;6282792;28;20241;-55
2022/08/01 13:47:01;;;;;;;2.40;2.27;;;24.70;1.00;;;;;;6277953;28;20226;-54
2022/08/01 13:50:16;;;;;;;2.07;2.07;;;24.70;1.00;;;;;;6285509;28;20225;-56
2022/08/01 13:53:20;;;;;;;2.47;2.07;;;24.70;1.00;;;;;;6280565;28;20258;-56
2022/08/01 13:56:24;;;;;;;2.17;2.17;;;24.50;1.00;;;;;;6282369;28;20225;-55
2022/08/01 13:59:28;;;;;;;1.90;1.90;;;24.30;1.00;;;;;;6285166;28;20234;-54
2022/08/01 14:02:31;;;;;;;2.20;2.07;;;24.10;1.00;;;;;;6283699;28;20252;-55
2022/08/01 14:05:34;;;;;;;2.10;1.87;;;24.00;1.00;;;;;;6288191;28;20252;-56
2022/08/01 14:08:38;;;;;;;2.30;2.30;;;23.90;1.00;;;;;;6285230;28;20300;-55
2022/08/01 14:11:47;;;;;;;2.30;2.20;;;24.00;1.00;;;;;;6287641;28;20720;-53
2022/08/01 14:14:52;;;;;;;2.40;2.30;;;24.10;1.00;;;;;;6283141;28;20271;-55
2022/08/01 14:17:55;;;;;;;4.83;1.97;;;24.40;1.00;;;;;;6291757;28;20705;-55
2022/08/01 14:20:58;;;;;;;2.50;2.30;;;24.60;1.00;;;;;;6285118;28;20738;-54
2022/08/01 14:24:09;;;;;;;2.40;2.40;;;24.80;1.00;;;;;;6279711;28;20234;-55
2022/08/01 14:27:12;;;;;;;2.00;1.90;;;25.00;1.00;;;;;;6281873;28;20283;-54
2022/08/01 14:30:16;;;;;;;2.20;2.10;;;25.30;1.00;;;;;;6273852;28;20298;-54
2022/08/01 14:33:19;;;;;;;1.77;1.77;;;25.60;1.00;;;;;;6279925;28;20229;-54
2022/08/01 14:36:22;;;;;;;1.50;1.50;;;25.90;1.00;;;;;;6280296;28;20244;-55
2022/08/01 14:39:33;;;;;;;1.80;1.80;;;26.00;1.00;;;;;;6278178;28;20248;-54
2022/08/01 14:42:37;;;;;;;1.80;1.70;;;26.10;1.00;;;;;;6277030;28;20379;-54
2022/08/01 14:45:41;;;;;;;1.50;1.50;;;26.20;1.00;;;;;;6280684;28;20257;-54
2022/08/01 14:48:44;;;;;;;1.67;1.60;;;26.40;1.00;;;;;;6283969;28;20608;-54
2022/08/01 14:51:47;;;;;;;1.90;1.80;;;26.30;1.00;;;;;;6274523;28;20532;-54
2022/08/01 14:54:50;;;;;;;1.77;1.77;;;26.30;1.00;;;;;;6252262;28;20298;-55
2022/08/01 14:57:53;;;;;;;1.70;1.70;;;26.30;1.00;;;;;;6281882;28;20330;-54
2022/08/01 15:00:58;;;;;;;1.53;1.53;;;26.10;1.00;;;;;;6274723;28;20772;-55
2022/08/01 15:04:01;;;;;;;1.73;1.63;;;26.00;1.00;;;;;;6287338;28;20236;-54
2022/08/01 15:07:11;;;;;;;2.00;2.00;;;25.60;1.00;;;;;;6276494;28;20226;-53
2022/08/01 15:10:15;;;;;;;2.37;2.27;;;25.50;1.00;;;;;;6277329;28;20408;-54
2022/08/01 15:13:18;;;;;;;3.00;2.90;;;25.40;1.00;;;;;;6280053;28;20242;-53
2022/08/01 15:16:24;;;;;;;2.50;2.50;;;25.30;1.00;;;;;;6283666;28;20217;-54
2022/08/01 15:19:27;;;;;;;2.40;2.40;;;25.30;1.00;;;;;;6278749;28;20320;-55
2022/08/01 15:22:30;;;;;;;3.10;3.00;;;25.10;1.00;;;;;;6276689;28;20373;-56
2022/08/01 15:25:33;;;;;;;2.73;2.40;;;25.00;1.00;;;;;;6283488;28;20232;-54
2022/08/01 15:28:44;;;;;;;1.80;1.80;;;24.80;1.00;;;;;;6285440;28;20717;-53
2022/08/01 15:31:48;;;;;;;2.73;2.63;;;24.70;1.00;;;;;;6281651;28;20245;-54
2022/08/01 15:34:51;;;;;;;2.10;2.10;;;24.70;1.00;;;;;;6278898;28;20252;-56
2022/08/01 15:37:54;;;;;;;2.53;2.03;;;24.60;1.00;;;;;;6290613;28;20224;-55
2022/08/01 15:40:57;;;;;;;2.50;2.30;;;24.60;1.00;;;;;;6276978;28;20777;-55
2022/08/01 15:44:00;;;;;;;2.23;1.93;;;24.70;1.00;;;;;;6284053;28;20472;-53
2022/08/01 15:47:06;;;;;;;2.17;2.17;;;24.80;1.00;;;;;;6284198;28;20283;-56
2022/08/01 15:50:09;;;;;;;2.73;2.63;;;24.70;1.00;;;;;;6288224;28;20291;-55
2022/08/01 15:53:12;;;;;;;2.10;2.03;;;24.80;1.00;;;;;;6292953;28;20629;-54
2022/08/01 15:56:15;;;;;;;1.70;1.70;;;25.00;1.00;;;;;;6283834;28;20302;-55
2022/08/01 15:59:18;;;;;;;1.80;1.70;;;25.00;1.00;;;;;;6284895;28;20324;-55
2022/08/01 16:02:26;;;;;;;4.07;2.00;;;25.10;1.00;;;;;;6285756;28;20314;-54
2022/08/01 16:05:29;;;;;;;1.70;1.70;;;25.10;1.00;;;;;;6277165;28;20758;-55
2022/08/01 16:08:32;;;;;;;1.77;1.77;;;25.30;1.00;;;;;;6288145;28;20265;-55
2022/08/01 16:11:35;;;;;;;2.00;1.90;;;25.20;1.00;;;;;;6282846;28;20233;-54
2022/08/01 16:14:44;;;;;;;1.70;1.70;;;25.30;1.00;;;;;;6284658;28;20750;-54
2022/08/01 16:17:49;;;;;;;1.70;1.70;;;25.30;1.00;;;;;;6286489;28;20895;-55
2022/08/01 16:20:52;;;;;;;2.37;2.37;;;25.30;1.00;;;;;;6285271;28;20237;-56
2022/08/01 16:23:55;;;;;;;2.33;2.23;;;25.20;1.00;;;;;;6281599;28;20230;-54